Time;durP1;ratioP1;P1;durP2;ratioP2;P2;SDS_P1;SDS_P2;PMS_P1;PMS_P2;Temp;Humidity;BMP_temperature;BMP_pressure;BME280_temperature;BME280_humidity;BME280_pressure;Samples;Min_cycle;Max_cycle;Signal;HPM_P1;HPM_P2
2021/07/20 00:02:43;;;;;;;6.13;1.77;;;17.40;99.90;17.30;96791.00;;;;5093285;28;20240;-71
2021/07/20 00:05:32;;;;;;;11.40;2.33;;;17.40;99.90;17.30;96787.00;;;;5097248;28;20244;-70
2021/07/20 00:08:21;;;;;;;3.97;2.10;;;17.40;99.90;17.10;96781.00;;;;5101014;28;20206;-71
2021/07/20 00:11:10;;;;;;;2.30;1.97;;;17.40;99.90;17.10;96789.00;;;;5104195;28;20214;-70
2021/07/20 00:14:01;;;;;;;2.40;2.20;;;17.40;99.90;16.90;96788.00;;;;5104695;28;20209;-71
2021/07/20 00:16:50;;;;;;;5.70;2.40;;;17.30;99.90;16.70;96791.00;;;;5102766;28;20234;-71
2021/07/20 00:19:39;;;;;;;2.57;2.20;;;17.20;99.90;16.80;96789.00;;;;5103271;28;20775;-70
2021/07/20 00:22:28;;;;;;;11.37;3.27;;;17.10;99.90;16.80;96789.00;;;;5104095;28;20221;-71
2021/07/20 00:25:17;;;;;;;5.03;2.10;;;17.10;99.90;16.30;96777.00;;;;5091115;28;20657;-70
2021/07/20 00:28:06;;;;;;;4.03;2.47;;;17.00;99.90;16.30;96785.00;;;;5108967;28;20206;-70
2021/07/20 00:30:57;;;;;;;3.23;2.67;;;16.90;99.90;16.40;96776.00;;;;5106618;28;20221;-70
2021/07/20 00:33:46;;;;;;;4.87;2.73;;;16.80;99.90;16.40;96780.00;;;;5108264;28;20237;-70
2021/07/20 00:36:35;;;;;;;2.80;2.50;;;16.70;99.90;16.20;96778.00;;;;5108239;28;20206;-70
2021/07/20 00:39:24;;;;;;;2.23;1.80;;;16.70;99.90;16.30;96778.00;;;;5108039;28;20202;-70
2021/07/20 00:42:13;;;;;;;4.10;2.20;;;16.60;99.90;16.50;96775.00;;;;5106767;28;20229;-70
2021/07/20 00:45:04;;;;;;;3.10;1.97;;;16.60;99.90;16.50;96769.00;;;;5109229;28;20217;-70
2021/07/20 00:47:54;;;;;;;4.50;2.70;;;16.60;99.90;16.60;96769.00;;;;5108662;28;20222;-70
2021/07/20 00:50:46;;;;;;;4.30;2.50;;;16.70;99.90;16.70;96775.00;;;;5106548;28;20210;-71
2021/07/20 00:53:35;;;;;;;4.00;2.83;;;16.70;99.90;16.80;96775.00;;;;5107117;28;20244;-71
2021/07/20 00:56:24;;;;;;;5.53;3.07;;;16.80;99.90;16.80;96773.00;;;;5108150;28;20214;-70
2021/07/20 00:59:14;;;;;;;4.83;2.33;;;16.80;99.90;16.80;96781.00;;;;5094213;28;20220;-70
2021/07/20 01:02:04;;;;;;;2.93;2.17;;;16.90;99.90;16.70;96777.00;;;;5107461;28;20230;-70
2021/07/20 01:04:55;;;;;;;5.47;2.80;;;16.90;99.90;16.80;96768.00;;;;5106703;28;20206;-71
2021/07/20 01:07:45;;;;;;;3.10;2.40;;;16.90;99.90;16.80;96765.00;;;;5099511;28;20225;-70
2021/07/20 01:10:37;;;;;;;6.60;2.20;;;17.00;99.90;16.80;96766.00;;;;5107425;28;20704;-70
2021/07/20 01:13:27;;;;;;;3.27;2.13;;;17.00;99.90;16.90;96762.00;;;;5106986;28;20237;-69
2021/07/20 01:16:17;;;;;;;6.17;2.47;;;17.00;99.90;16.90;96774.00;;;;5107454;28;20211;-69
2021/07/20 01:19:08;;;;;;;4.43;2.33;;;17.00;99.90;17.00;96759.00;;;;5107023;28;20585;-70
2021/07/20 01:22:02;;;;;;;4.23;2.43;;;17.00;99.90;16.80;96750.00;;;;5087472;28;20595;-70
2021/07/20 01:24:53;;;;;;;6.63;2.50;;;17.10;99.90;16.70;96755.00;;;;5087684;28;20225;-69
2021/07/20 01:27:48;;;;;;;2.90;2.30;;;17.00;99.90;16.90;96752.00;;;;5087334;28;20230;-70
2021/07/20 01:30:42;;;;;;;3.27;2.10;;;17.00;99.90;16.90;96752.00;;;;5086734;28;20211;-70
2021/07/20 01:33:34;;;;;;;5.07;2.30;;;15.30;99.90;16.70;96752.00;;;;5086811;28;20234;-70
2021/07/20 01:36:24;;;;;;;4.53;2.17;;;17.00;99.90;16.40;96746.00;;;;5086629;28;20206;-69
2021/07/20 01:39:14;;;;;;;5.23;2.70;;;17.00;99.90;16.30;96745.00;;;;5087434;28;20613;-69
2021/07/20 01:42:06;;;;;;;3.37;2.50;;;16.90;99.90;16.10;96739.00;;;;5087846;28;20238;-69
2021/07/20 01:44:56;;;;;;;4.50;2.50;;;16.70;99.90;16.20;96748.00;;;;5087705;28;20678;-70
2021/07/20 01:47:47;;;;;;;3.83;2.03;;;16.60;99.90;16.30;96742.00;;;;5075589;28;20210;-70
2021/07/20 01:50:38;;;;;;;3.23;2.73;;;16.60;99.90;16.20;96735.00;;;;5090475;28;20207;-69
2021/07/20 01:53:27;;;;;;;2.77;2.33;;;16.50;99.90;16.30;96732.00;;;;5082631;28;20228;-70
2021/07/20 01:56:16;;;;;;;5.40;2.37;;;16.60;99.90;16.10;96739.00;;;;5086861;28;20981;-69
2021/07/20 01:59:10;;;;;;;6.20;2.97;;;16.50;99.90;16.20;96736.00;;;;5088092;28;20225;-69
2021/07/20 02:02:06;;;;;;;6.63;2.93;;;16.50;99.90;16.40;96739.00;;;;5088320;28;20215;-69
2021/07/20 02:08:29;;;;;;;3.33;2.30;;;16.50;99.90;16.40;96731.00;;;;5044958;28;20197;-70
2021/07/20 02:11:23;;;;;;;2.70;2.50;;;16.60;99.90;16.70;96732.00;;;;5080959;28;20207;-69
2021/07/20 02:14:16;;;;;;;4.47;2.20;;;16.60;99.90;16.80;96734.00;;;;5088293;28;20227;-71
2021/07/20 02:17:05;;;;;;;5.83;2.87;;;16.70;99.90;16.80;96726.00;;;;5076273;28;20246;-71
2021/07/20 02:19:59;;;;;;;4.93;2.50;;;16.80;99.90;16.70;96736.00;;;;5087767;28;20211;-70
2021/07/20 02:22:50;;;;;;;4.97;2.60;;;16.90;99.90;16.40;96730.00;;;;5088167;28;20227;-68
2021/07/20 02:25:41;;;;;;;4.73;2.40;;;16.80;99.90;16.20;96732.00;;;;5086887;28;20203;-71
2021/07/20 02:28:41;;;;;;;4.03;2.80;;;16.70;99.90;16.30;96741.00;;;;5088552;28;20206;-70
2021/07/20 02:31:33;;;;;;;2.83;2.33;;;16.60;99.90;16.30;96735.00;;;;5083798;28;20203;-69
2021/07/20 02:34:24;;;;;;;3.70;2.83;;;16.60;99.90;16.30;96726.00;;;;5086168;28;20231;-69
2021/07/20 02:37:14;;;;;;;6.23;2.97;;;16.60;99.90;16.40;96719.00;;;;5087160;28;20199;-69
2021/07/20 02:40:07;;;;;;;5.60;2.80;;;16.60;99.90;16.20;96727.00;;;;5076766;28;20210;-71
2021/07/20 02:42:58;;;;;;;5.20;2.50;;;16.50;99.90;16.30;96725.00;;;;5086612;28;20223;-70
2021/07/20 02:45:49;;;;;;;5.93;2.57;;;16.50;99.90;16.10;96727.00;;;;5087898;28;20214;-69
2021/07/20 02:48:40;;;;;;;7.40;3.13;;;16.50;99.90;16.10;96728.00;;;;5086569;28;20272;-69
2021/07/20 02:51:30;;;;;;;8.17;2.90;;;15.90;99.90;16.10;96731.00;;;;5091706;28;20210;-69
2021/07/20 02:54:25;;;;;;;5.00;2.40;;;16.40;99.90;16.20;96732.00;;;;5085487;28;20215;-69
2021/07/20 02:57:15;;;;;;;4.33;3.33;;;16.40;99.90;16.50;96728.00;;;;5086825;28;20199;-69
2021/07/20 03:00:06;;;;;;;4.53;3.07;;;16.50;99.90;16.60;96729.00;;;;5087220;28;20206;-69
2021/07/20 03:02:56;;;;;;;2.80;2.50;;;16.60;99.90;16.50;96721.00;;;;5087647;28;20261;-68
2021/07/20 03:05:49;;;;;;;2.93;2.60;;;16.60;99.90;16.20;96730.00;;;;5066059;28;20200;-69
2021/07/20 03:08:42;;;;;;;2.87;2.67;;;16.60;99.90;16.20;96721.00;;;;5085864;28;20203;-70
2021/07/20 03:11:36;;;;;;;4.27;2.63;;;16.50;99.90;16.30;96728.00;;;;5086075;28;20217;-70
2021/07/20 03:14:28;;;;;;;4.13;2.90;;;16.50;99.90;16.40;96722.00;;;;5085909;28;20230;-70
2021/07/20 03:17:19;;;;;;;4.03;2.60;;;16.60;99.90;16.40;96717.00;;;;5076865;28;20203;-69
2021/07/20 03:20:11;;;;;;;4.07;2.77;;;16.60;99.90;16.40;96715.00;;;;5072833;28;20242;-71
2021/07/20 03:23:03;;;;;;;5.80;3.00;;;16.60;99.90;16.30;96729.00;;;;5086548;28;20597;-70
2021/07/20 03:25:56;;;;;;;4.47;2.77;;;16.60;99.90;16.50;96729.00;;;;5087262;28;20207;-69
2021/07/20 03:28:46;;;;;;;14.17;3.47;;;16.60;99.90;16.40;96725.00;;;;5085051;28;20210;-71
2021/07/20 03:31:37;;;;;;;6.60;3.23;;;16.60;99.90;16.30;96725.00;;;;5084825;28;20211;-70
2021/07/20 03:34:27;;;;;;;5.03;3.17;;;16.60;99.90;16.40;96729.00;;;;5084707;28;20694;-70
2021/07/20 03:37:17;;;;;;;3.70;2.23;;;16.60;99.90;16.60;96739.00;;;;5084725;28;20196;-70
2021/07/20 03:40:09;;;;;;;6.13;3.00;;;16.60;99.90;16.70;96727.00;;;;5085953;28;20203;-70
2021/07/20 03:42:59;;;;;;;4.90;2.87;;;16.70;99.90;16.70;96730.00;;;;5085745;28;20486;-70
2021/07/20 03:45:48;;;;;;;4.30;2.73;;;16.70;99.90;16.90;96714.00;;;;5085947;28;20210;-70
2021/07/20 03:48:38;;;;;;;6.10;2.83;;;16.80;99.90;16.60;96720.00;;;;5086564;28;20218;-70
2021/07/20 03:51:29;;;;;;;5.90;3.00;;;16.90;99.90;16.40;96718.00;;;;5084867;28;20264;-71
2021/07/20 03:54:21;;;;;;;4.63;3.10;;;16.80;99.90;16.50;96728.00;;;;5086576;28;20227;-71
2021/07/20 03:57:13;;;;;;;2.37;2.17;;;16.80;99.90;16.70;96730.00;;;;5085845;28;20207;-71
2021/07/20 04:00:08;;;;;;;3.73;2.60;;;16.80;99.90;16.40;96729.00;;;;5085582;28;20688;-70
2021/07/20 04:06:08;;;;;;;6.70;2.37;;;16.70;99.90;16.10;96725.00;;;;5064727;28;20587;-71
2021/07/20 04:08:58;;;;;;;3.17;2.70;;;16.60;99.90;16.20;96732.00;;;;5073986;28;20203;-70
2021/07/20 04:11:47;;;;;;;4.40;3.27;;;16.50;99.90;16.30;96722.00;;;;5082429;28;20596;-71
2021/07/20 04:14:39;;;;;;;4.43;2.83;;;16.60;99.90;16.50;96741.00;;;;5078106;28;20592;-71
2021/07/20 04:17:29;;;;;;;2.83;2.63;;;16.60;99.90;16.40;96736.00;;;;5083851;28;20206;-71
2021/07/20 04:20:18;;;;;;;4.70;3.20;;;16.60;99.90;16.40;96735.00;;;;5083942;28;20242;-71
2021/07/20 04:23:08;;;;;;;4.57;2.70;;;16.60;99.90;16.50;96727.00;;;;5081005;28;20239;-71
2021/07/20 04:25:59;;;;;;;5.23;3.07;;;16.60;99.90;16.70;96735.00;;;;5081597;28;20271;-71
2021/07/20 04:28:48;;;;;;;5.57;3.27;;;16.70;99.90;16.70;96731.00;;;;5077190;28;20663;-72
2021/07/20 04:31:41;;;;;;;5.27;2.97;;;16.70;99.90;16.80;96732.00;;;;5072644;28;20207;-71
2021/07/20 04:34:32;;;;;;;6.27;3.30;;;16.80;99.90;16.80;96727.00;;;;5084772;28;20590;-71
2021/07/20 04:37:22;;;;;;;2.90;2.60;;;16.80;99.90;16.80;96736.00;;;;5085256;28;20202;-71
2021/07/20 04:40:13;;;;;;;4.80;2.90;;;16.90;99.90;16.80;96730.00;;;;5068015;28;20203;-71
2021/07/20 04:43:02;;;;;;;3.07;2.37;;;16.90;99.90;16.60;96740.00;;;;5074305;28;20603;-71
2021/07/20 04:45:56;;;;;;;7.57;2.90;;;16.90;99.90;16.20;96748.00;;;;5073467;28;20206;-72
2021/07/20 04:48:46;;;;;;;6.40;3.43;;;16.80;99.90;16.20;96748.00;;;;5085849;28;20203;-72
2021/07/20 04:51:38;;;;;;;3.77;3.30;;;16.70;99.90;16.10;96753.00;;;;5088429;28;20207;-72
2021/07/20 04:54:27;;;;;;;5.43;3.90;;;16.60;99.90;16.10;96749.00;;;;5083514;28;20227;-71
2021/07/20 04:57:16;;;;;;;4.07;3.67;;;16.50;99.90;16.40;96741.00;;;;5084571;28;20207;-71
2021/07/20 05:00:09;;;;;;;3.50;3.20;;;16.50;99.90;16.80;96747.00;;;;5084487;28;20206;-71
2021/07/20 05:03:00;;;;;;;6.20;3.27;;;16.70;99.90;17.30;96745.00;;;;5085670;28;20698;-71
2021/07/20 05:05:54;;;;;;;3.87;2.87;;;16.80;99.90;17.50;96741.00;;;;5075955;28;20206;-70
2021/07/20 05:08:44;;;;;;;5.37;2.93;;;17.10;99.90;17.70;96753.00;;;;5085041;28;20213;-71
2021/07/20 05:11:35;;;;;;;5.37;3.27;;;17.30;99.90;17.70;96745.00;;;;5086267;28;20199;-71
2021/07/20 05:14:24;;;;;;;3.80;3.20;;;17.50;99.90;17.90;96753.00;;;;5088458;28;20604;-71
2021/07/20 05:17:13;;;;;;;8.13;3.57;;;17.70;99.90;18.00;96758.00;;;;5078320;28;20491;-71
2021/07/20 05:20:04;;;;;;;5.00;3.40;;;17.90;99.90;17.90;96774.00;;;;5088968;28;20273;-70
2021/07/20 05:22:56;;;;;;;4.80;2.70;;;17.90;99.90;17.80;96790.00;;;;5089131;28;20233;-71
2021/07/20 05:25:50;;;;;;;6.23;3.53;;;17.90;99.90;17.70;96805.00;;;;5087941;28;20206;-71
2021/07/20 05:28:40;;;;;;;5.33;3.03;;;17.90;99.90;17.60;96808.00;;;;5078120;28;20214;-71
2021/07/20 05:31:31;;;;;;;3.53;3.23;;;17.90;99.90;17.70;96811.00;;;;5061049;28;20731;-72
2021/07/20 05:34:20;;;;;;;6.80;3.47;;;17.80;99.90;17.80;96807.00;;;;5076301;28;20218;-71
2021/07/20 05:37:11;;;;;;;7.83;3.47;;;17.90;99.90;17.90;96808.00;;;;5088463;28;20211;-70
2021/07/20 05:40:01;;;;;;;6.23;3.43;;;17.90;99.90;18.10;96814.00;;;;5078006;28;20269;-71
2021/07/20 05:42:55;;;;;;;6.00;3.17;;;18.00;99.90;18.10;96829.00;;;;5075473;28;20219;-71
2021/07/20 05:45:44;;;;;;;9.20;5.43;;;18.00;99.90;18.20;96819.00;;;;5088240;28;20274;-71
2021/07/20 05:48:34;;;;;;;4.40;3.50;;;18.10;99.90;18.10;96830.00;;;;5088694;28;20215;-71
2021/07/20 05:51:23;;;;;;;4.20;3.17;;;18.10;99.90;18.20;96841.00;;;;5083339;28;20207;-71
2021/07/20 05:54:16;;;;;;;6.73;3.80;;;18.20;99.90;18.20;96831.00;;;;5084981;28;20203;-70
2021/07/20 05:57:08;;;;;;;7.03;3.80;;;17.80;99.90;18.30;96835.00;;;;5078389;28;20200;-71
2021/07/20 05:59:58;;;;;;;7.17;3.60;;;18.30;99.90;18.40;96834.00;;;;5087539;28;20682;-71
2021/07/20 06:02:48;;;;;;;5.70;3.87;;;18.30;99.90;18.40;96834.00;;;;5088363;28;20226;-71
2021/07/20 06:05:37;;;;;;;5.20;3.60;;;18.40;99.90;18.60;96840.00;;;;5079027;28;20191;-70
2021/07/20 06:08:29;;;;;;;8.33;3.63;;;18.50;99.90;18.50;96846.00;;;;5079398;28;20199;-70
2021/07/20 06:11:18;;;;;;;4.30;3.40;;;18.60;99.90;18.60;96852.00;;;;5087320;28;20579;-70
2021/07/20 06:14:09;;;;;;;6.90;4.47;;;18.60;99.90;18.60;96840.00;;;;5088340;28;20204;-70
2021/07/20 06:16:59;;;;;;;5.70;3.20;;;18.70;99.90;18.40;96834.00;;;;5087976;28;20225;-71
2021/07/20 06:19:47;;;;;;;4.87;2.77;;;18.70;99.90;17.80;96835.00;;;;5087075;28;20215;-70
2021/07/20 06:22:45;;;;;;;4.97;3.10;;;18.50;99.90;18.20;96839.00;;;;5085793;28;20223;-70
2021/07/20 06:25:34;;;;;;;4.43;3.53;;;18.40;99.90;18.60;96842.00;;;;5087355;28;20678;-69
2021/07/20 06:28:25;;;;;;;5.07;3.60;;;18.50;99.90;18.80;96831.00;;;;5088632;28;20706;-70
2021/07/20 06:31:19;;;;;;;4.33;3.87;;;18.60;99.90;18.60;96826.00;;;;5087380;28;20203;-69
2021/07/20 06:34:08;;;;;;;4.80;3.90;;;18.70;99.90;18.60;96830.00;;;;5086995;28;20256;-70
2021/07/20 06:36:57;;;;;;;10.43;6.57;;;18.80;99.90;18.40;96830.00;;;;5086427;28;20253;-71
2021/07/20 06:39:49;;;;;;;7.13;3.67;;;18.70;99.90;18.50;96835.00;;;;5086582;28;20222;-70
2021/07/20 06:42:41;;;;;;;7.23;3.43;;;18.70;99.90;18.70;96830.00;;;;5087510;28;20435;-70
2021/07/20 06:45:30;;;;;;;6.93;3.57;;;18.80;99.90;18.50;96825.00;;;;5087893;28;20215;-71
2021/07/20 06:48:23;;;;;;;4.87;3.63;;;18.80;99.90;18.70;96832.00;;;;5086994;28;20618;-71
2021/07/20 06:51:14;;;;;;;6.47;4.13;;;18.80;99.90;18.80;96830.00;;;;5085572;28;20674;-71
2021/07/20 06:54:04;;;;;;;3.40;3.10;;;18.90;99.90;18.90;96809.00;;;;5086580;28;20241;-70
2021/07/20 06:56:57;;;;;;;3.60;3.30;;;18.90;99.90;19.20;96825.00;;;;5085926;28;20215;-71
2021/07/20 06:59:48;;;;;;;6.07;3.53;;;19.10;99.90;19.60;96818.00;;;;5085688;28;20191;-72
2021/07/20 07:02:42;;;;;;;5.67;3.30;;;19.20;99.90;20.30;96794.00;;;;5087140;28;20617;-71
2021/07/20 07:05:34;;;;;;;4.60;2.83;;;19.60;99.90;21.00;96795.00;;;;5078369;28;20200;-72
2021/07/20 07:08:24;;;;;;;6.43;3.43;;;20.00;99.90;21.40;96791.00;;;;5078845;28;20226;-72
2021/07/20 07:11:13;;;;;;;4.87;2.07;;;20.40;99.90;21.90;96796.00;;;;5081757;28;20208;-70
2021/07/20 07:14:03;;;;;;;4.30;2.93;;;20.90;99.90;22.40;96793.00;;;;5089580;28;20214;-71
2021/07/20 07:16:55;;;;;;;3.17;2.50;;;21.40;99.90;22.70;96801.00;;;;5081498;28;20348;-71
2021/07/20 07:19:46;;;;;;;5.40;2.80;;;21.80;99.90;22.80;96801.00;;;;5085327;28;20654;-72
2021/07/20 07:22:39;;;;;;;5.30;1.83;;;22.10;99.90;22.70;96816.00;;;;5085077;28;20233;-72
2021/07/20 07:25:29;;;;;;;3.07;2.17;;;22.40;99.90;22.90;96822.00;;;;5080632;28;20207;-71
2021/07/20 07:28:20;;;;;;;6.97;1.90;;;22.50;99.90;22.90;96815.00;;;;5078401;28;20200;-71
2021/07/20 07:31:11;;;;;;;1.90;1.53;;;22.60;99.90;22.30;96815.00;;;;5076075;28;20207;-71
2021/07/20 07:34:00;;;;;;;3.90;2.07;;;22.60;99.90;22.60;96788.00;;;;5084692;28;20747;-71
2021/07/20 07:36:51;;;;;;;2.63;1.70;;;22.50;99.90;22.60;96800.00;;;;5072687;28;20224;-71
2021/07/20 07:39:42;;;;;;;1.50;1.30;;;22.60;99.90;22.70;96782.00;;;;5076993;28;20328;-71
2021/07/20 07:42:34;;;;;;;1.83;1.60;;;22.60;99.90;23.30;96797.00;;;;5082208;28;20227;-71
2021/07/20 07:45:23;;;;;;;2.83;1.83;;;22.80;99.90;23.20;96804.00;;;;5064673;28;20214;-69
2021/07/20 07:48:14;;;;;;;3.63;1.20;;;22.90;99.90;23.30;96773.00;;;;5077709;28;20203;-72
2021/07/20 07:51:03;;;;;;;2.90;1.90;;;23.00;99.90;23.70;96785.00;;;;5069613;28;20208;-71
2021/07/20 07:53:53;;;;;;;1.97;1.50;;;23.20;99.90;23.90;96784.00;;;;5082268;28;20228;-71
2021/07/20 07:56:45;;;;;;;3.07;1.80;;;23.40;99.90;24.00;96765.00;;;;5073767;28;20245;-70
2021/07/20 07:59:35;;;;;;;2.23;1.20;;;23.60;99.90;24.40;96778.00;;;;5076987;28;20588;-71
2021/07/20 08:02:29;;;;;;;1.53;1.00;;;23.80;99.90;24.60;96782.00;;;;5078057;28;20226;-71
2021/07/20 08:05:18;;;;;;;2.63;1.80;;;24.10;99.90;24.90;96770.00;;;;5080326;28;20739;-72
2021/07/20 08:08:08;;;;;;;0.83;0.70;;;24.40;98.40;24.50;96782.00;;;;5070683;28;20191;-71
2021/07/20 08:10:58;;;;;;;1.63;1.20;;;24.50;95.70;23.90;96797.00;;;;5071794;28;20694;-70
2021/07/20 08:13:49;;;;;;;2.03;1.67;;;24.30;93.60;23.40;96790.00;;;;5077457;28;20214;-71
2021/07/20 08:16:43;;;;;;;1.63;1.00;;;24.10;91.10;23.10;96772.00;;;;5079358;28;20888;-70
2021/07/20 08:19:37;;;;;;;2.60;1.10;;;23.80;91.00;23.40;96789.00;;;;5078059;28;20211;-71
2021/07/20 08:22:30;;;;;;;2.83;1.37;;;24.60;91.00;22.50;96787.00;;;;5082566;28;20489;-71
2021/07/20 08:25:28;;;;;;;6.30;1.37;;;23.30;90.00;22.80;96785.00;;;;5082895;28;20233;-70
2021/07/20 08:28:28;;;;;;;1.93;1.33;;;23.10;88.20;23.20;96778.00;;;;5083704;28;20214;-71
2021/07/20 08:31:20;;;;;;;3.40;1.30;;;23.00;87.20;23.60;96769.00;;;;5083889;28;20199;-70
2021/07/20 08:34:12;;;;;;;1.63;1.17;;;23.20;86.40;23.50;96770.00;;;;5084913;28;20207;-70
2021/07/20 08:37:03;;;;;;;2.00;1.00;;;23.30;84.00;23.70;96773.00;;;;5083608;28;20215;-70
2021/07/20 08:39:58;;;;;;;1.60;0.80;;;23.50;81.80;23.60;96773.00;;;;5071572;28;20403;-70
2021/07/20 08:42:59;;;;;;;2.33;2.03;;;23.70;81.10;24.30;96774.00;;;;5085021;28;20273;-70
2021/07/20 08:46:09;;;;;;;3.73;1.73;;;23.90;87.00;24.50;96774.00;;;;5084117;28;20222;-70
2021/07/20 08:49:11;;;;;;;1.40;1.23;;;24.10;87.90;24.60;96770.00;;;;5088810;28;20645;-70
2021/07/20 08:52:05;;;;;;;1.93;1.23;;;24.30;85.00;25.00;96773.00;;;;5080153;28;20226;-71
2021/07/20 08:54:58;;;;;;;2.40;1.00;;;24.50;85.80;25.50;96773.00;;;;5089148;28;20310;-71
2021/07/20 08:57:56;;;;;;;2.77;1.70;;;24.80;86.40;25.40;96763.00;;;;5085416;28;20227;-71
2021/07/20 09:00:48;;;;;;;2.00;1.63;;;25.00;81.90;25.80;96774.00;;;;5083471;28;20203;-71
2021/07/20 09:03:47;;;;;;;3.00;1.23;;;25.20;82.20;26.20;96760.00;;;;5088069;28;20268;-70
2021/07/20 09:06:43;;;;;;;1.93;1.63;;;25.50;81.50;26.40;96754.00;;;;5079028;28;20198;-71
2021/07/20 09:09:37;;;;;;;4.33;1.70;;;25.80;81.40;26.60;96775.00;;;;5100402;28;20201;-70
2021/07/20 09:12:31;;;;;;;3.33;2.10;;;26.00;79.20;25.70;96763.00;;;;5087742;28;20615;-71
2021/07/20 09:15:21;;;;;;;2.23;1.63;;;26.20;73.40;24.10;96751.00;;;;5087653;28;20210;-69
2021/07/20 09:18:20;;;;;;;4.17;2.80;;;25.60;68.90;25.40;96756.00;;;;5087885;28;20363;-69
2021/07/20 09:21:12;;;;;;;4.57;2.30;;;25.40;70.30;25.30;96770.00;;;;5080492;28;20392;-70
2021/07/20 09:24:11;;;;;;;5.07;3.00;;;25.40;66.90;26.10;96762.00;;;;5087743;28;20555;-71
2021/07/20 09:27:12;;;;;;;7.50;3.17;;;25.50;67.40;26.50;96764.00;;;;5077417;28;20396;-71
2021/07/20 09:30:13;;;;;;;3.67;3.23;;;25.80;66.20;25.70;96766.00;;;;5087873;28;20205;-72
2021/07/20 09:33:18;;;;;;;6.77;3.80;;;25.80;60.60;25.40;96768.00;;;;5087664;28;20549;-73
2021/07/20 09:36:16;;;;;;;4.77;3.73;;;25.70;63.70;25.80;96770.00;;;;5087040;28;20205;-71
2021/07/20 09:39:45;;;;;;;4.33;3.20;;;25.70;60.50;26.20;96794.00;;;;5088206;28;20207;-70
2021/07/20 09:42:44;;;;;;;5.13;3.10;;;25.90;60.80;25.60;96767.00;;;;5088166;28;20751;-71
2021/07/20 09:45:40;;;;;;;4.50;4.07;;;26.00;59.00;25.70;96767.00;;;;5086964;28;20230;-71
2021/07/20 09:48:39;;;;;;;4.00;3.60;;;25.90;58.80;26.20;96763.00;;;;5087283;28;20658;-68
2021/07/20 09:52:01;;;;;;;5.27;3.63;;;26.00;59.80;26.20;96765.00;;;;5088641;28;20209;-73
2021/07/20 09:55:09;;;;;;;5.53;3.83;;;26.20;59.20;25.70;96772.00;;;;5085798;28;20243;-72
2021/07/20 09:58:10;;;;;;;4.80;3.47;;;26.00;57.90;26.00;96772.00;;;;5075399;28;20214;-73
2021/07/20 10:01:10;;;;;;;6.03;4.60;;;26.10;57.20;27.20;96771.00;;;;5073701;28;20280;-73
2021/07/20 10:04:12;;;;;;;7.10;4.57;;;26.40;58.90;27.50;96769.00;;;;5087813;28;20285;-70
2021/07/20 10:07:12;;;;;;;6.10;4.83;;;26.70;58.40;26.90;96763.00;;;;5080269;28;20200;-72
2021/07/20 10:10:12;;;;;;;4.77;4.27;;;27.00;56.10;26.50;96762.00;;;;5086479;28;20210;-72
2021/07/20 10:13:09;;;;;;;4.83;4.17;;;27.00;55.30;28.00;96757.00;;;;5080890;28;20716;-72
2021/07/20 10:16:11;;;;;;;4.83;4.10;;;27.20;57.10;28.90;96761.00;;;;5085455;28;20204;-73
2021/07/20 10:19:08;;;;;;;5.43;4.63;;;27.70;57.80;28.30;96746.00;;;;5085612;28;20208;-73
2021/07/20 10:22:01;;;;;;;5.97;5.07;;;27.90;55.20;28.80;96751.00;;;;5086581;28;20220;-71
2021/07/20 10:24:59;;;;;;;7.97;4.80;;;28.20;55.70;27.90;96744.00;;;;5086820;28;20202;-73
2021/07/20 10:27:56;;;;;;;5.63;4.53;;;28.40;54.60;28.70;96746.00;;;;5095982;28;20201;-73
2021/07/20 10:30:54;;;;;;;8.13;5.90;;;28.50;55.00;28.90;96746.00;;;;5085267;28;20210;-72
2021/07/20 10:33:48;;;;;;;7.37;5.33;;;28.70;52.40;27.80;96741.00;;;;5085014;28;20218;-73
2021/07/20 10:36:47;;;;;;;7.67;5.67;;;28.50;52.10;27.40;96731.00;;;;5081843;28;20556;-71
2021/07/20 10:39:42;;;;;;;7.83;5.63;;;28.20;52.70;28.70;96723.00;;;;5082889;28;20665;-73
2021/07/20 10:42:38;;;;;;;5.60;4.40;;;28.20;53.20;29.50;96754.00;;;;5081864;28;20225;-73
2021/07/20 10:45:34;;;;;;;8.07;5.00;;;28.60;52.90;29.70;96732.00;;;;5085546;28;20213;-72
2021/07/20 10:48:28;;;;;;;6.30;4.83;;;28.80;52.30;28.60;96718.00;;;;5077249;28;20204;-73
2021/07/20 10:51:22;;;;;;;13.00;7.43;;;28.70;52.30;29.20;96725.00;;;;5086207;28;20588;-72
2021/07/20 10:54:22;;;;;;;6.43;5.27;;;28.80;53.40;29.50;96718.00;;;;5071195;28;20206;-73
2021/07/20 10:57:22;;;;;;;6.10;4.67;;;29.00;53.30;28.90;96720.00;;;;5086001;28;20222;-72
2021/07/20 11:00:14;;;;;;;8.33;5.47;;;29.00;52.60;28.40;96711.00;;;;5084532;28;20225;-73
2021/07/20 11:03:16;;;;;;;5.60;5.03;;;28.90;50.90;28.10;96709.00;;;;5082035;28;20225;-74
2021/07/20 11:06:08;;;;;;;5.87;5.13;;;28.90;50.40;30.00;96729.00;;;;5085360;28;20311;-73
2021/07/20 11:09:07;;;;;;;8.57;5.33;;;29.10;52.20;28.90;96696.00;;;;5071842;28;20580;-72
2021/07/20 11:12:02;;;;;;;7.67;5.23;;;29.10;51.10;30.20;96689.00;;;;5085760;28;20734;-71
2021/07/20 11:14:53;;;;;;;6.17;5.30;;;29.30;51.30;30.30;96695.00;;;;5084446;28;20205;-72
2021/07/20 11:17:45;;;;;;;6.37;4.70;;;29.70;50.40;30.40;96691.00;;;;5084377;28;20221;-72
2021/07/20 11:20:36;;;;;;;6.93;5.20;;;29.90;50.30;28.50;96692.00;;;;5084876;28;20962;-72
2021/07/20 11:23:26;;;;;;;8.27;5.63;;;29.80;47.80;30.50;96692.00;;;;5079268;28;20220;-72
2021/07/20 11:26:19;;;;;;;6.27;5.30;;;29.80;50.50;31.30;96683.00;;;;5084878;28;20683;-72
2021/07/20 11:29:08;;;;;;;9.50;6.57;;;30.20;51.00;31.60;96674.00;;;;5084736;28;20585;-72
2021/07/20 11:32:02;;;;;;;7.28;5.50;;;30.60;50.30;31.40;96676.00;;;;5077020;28;20735;-72
2021/07/20 11:34:56;;;;;;;7.63;6.65;;;30.90;48.90;31.30;96674.00;;;;5079910;28;20623;-71
2021/07/20 11:37:53;;;;;;;6.05;5.18;;;31.00;49.30;31.60;96673.00;;;;5105518;28;20218;-71
2021/07/20 11:40:51;;;;;;;6.78;5.57;;;31.20;48.40;30.60;96667.00;;;;5105299;28;20252;-73
2021/07/20 11:44:00;;;;;;;6.93;5.57;;;31.20;47.00;31.00;96724.00;;;;5105046;28;20712;-71
2021/07/20 11:46:57;;;;;;;6.15;5.50;;;31.10;47.90;29.60;96723.00;;;;5094510;28;20206;-70
2021/07/20 11:49:59;;;;;;;6.82;6.07;;;30.60;48.20;29.20;96715.00;;;;5086597;28;20817;-71
2021/07/20 11:53:01;;;;;;;7.75;5.72;;;30.10;48.50;27.80;96723.00;;;;5079349;28;20211;-70
2021/07/20 11:55:56;;;;;;;7.07;4.97;;;29.40;48.20;28.70;96702.00;;;;5084059;28;20204;-70
2021/07/20 11:59:57;;;;;;;8.33;6.20;;;29.00;49.10;29.00;96727.00;;;;5079751;28;20223;-70
2021/07/20 12:03:19;;;;;;;7.30;5.90;;;28.90;50.70;27.80;96718.00;;;;5085506;28;20729;-69
2021/07/20 12:06:28;;;;;;;7.57;5.73;;;28.60;49.30;28.80;96706.00;;;;5092262;28;20200;-69
2021/07/20 12:09:32;;;;;;;10.20;5.47;;;28.60;50.40;29.20;96688.00;;;;5082831;28;20213;-70
2021/07/20 12:12:52;;;;;;;7.17;5.40;;;28.70;51.00;29.70;96682.00;;;;5081751;28;20230;-69
2021/07/20 12:15:42;;;;;;;6.13;5.00;;;29.10;50.90;30.30;96639.00;;;;5077811;28;20854;-69
2021/07/20 12:18:31;;;;;;;5.32;4.65;;;29.50;49.40;30.10;96635.00;;;;5083112;28;20253;-70
2021/07/20 12:21:22;;;;;;;7.55;5.75;;;30.00;48.40;29.90;96641.00;;;;5084698;28;20688;-70
2021/07/20 12:24:12;;;;;;;6.97;4.57;;;30.20;46.70;30.80;96631.00;;;;5085005;28;20202;-72
2021/07/20 12:27:05;;;;;;;5.88;5.28;;;30.30;47.60;30.60;96631.00;;;;5077805;28;20191;-71
2021/07/20 12:29:55;;;;;;;5.57;5.07;;;30.60;47.10;31.80;96638.00;;;;5081747;28;20688;-71
2021/07/20 12:32:46;;;;;;;6.45;5.70;;;30.90;47.40;32.50;96702.00;;;;5089504;28;20841;-69
2021/07/20 12:35:37;;;;;;;6.53;5.63;;;31.30;47.40;30.70;96700.00;;;;5088236;28;20703;-69
2021/07/20 12:38:26;;;;;;;7.13;5.53;;;31.20;46.20;30.50;96696.00;;;;5088288;28;20598;-70
2021/07/20 12:41:16;;;;;;;7.50;6.18;;;31.00;47.00;30.50;96667.00;;;;5086480;28;20213;-69
2021/07/20 12:44:08;;;;;;;8.27;6.47;;;30.90;47.20;31.30;96677.00;;;;5088635;28;20594;-70
2021/07/20 12:47:07;;;;;;;5.30;4.78;;;30.90;47.90;32.40;96622.00;;;;5081967;28;20825;-69
2021/07/20 12:50:06;;;;;;;8.63;5.30;;;31.20;47.70;32.40;96687.00;;;;5084613;28;20199;-69
2021/07/20 12:52:56;;;;;;;7.15;5.45;;;31.70;46.90;32.40;96699.00;;;;5076314;28;20229;-69
2021/07/20 12:55:46;;;;;;;10.68;5.88;;;31.70;47.90;31.30;96687.00;;;;5086281;28;20251;-69
2021/07/20 12:58:35;;;;;;;7.13;5.45;;;31.60;47.20;30.40;96700.00;;;;5087345;28;20650;-69